^^
Station Historical Data
Daily Summary for July 30, 2017 Units:  Both    English   Metric
« Previous Day
Next Day »
Daily Weekly Monthly Yearly Custom
  High: Low: Average:
Temperature: 73.0 °F /  22.8 °C 39.7 °F /  4.3 °C 55.6 °F /  13.1 °C
Dew Point: 37.4 °F /  3 °C 27.1 °F /  -2.7 °C 32.3 °F /  0.2 °C
Humidity: 66% 23% 44%
Wind Speed: 11.0mph /  17.7km/h - 1.3mph /  2.1km/h
Wind Gust: 14.0mph /  22.5km/h - -
Wind- - East
Pressure: 30.44 in /  1030.7 hPa 30.27 in /  1024.9 hPa -
Precipitation: 0.00 in /  0 mm    
Historical Graphs
 
 
Tabular Data for July 30, 2017
Time Temperature Dew Point Pressure Wind Wind Speed Wind Gust Humidity Rainfall Rate (Hourly) solar Conditions
00:01 45.9 °F /  7.7 °C 27.3 °F /  -2.6 °C 30.42in /  1030hPa Calm   2.0mph /  3.2km/h 48% 0.00in /  0mm 0.0 W/m2
00:07 45.7 °F /  7.6 °C 27.1 °F /  -2.7 °C 30.42in /  1030hPa Calm     48% 0.00in /  0mm 0.0 W/m2
00:13 45.7 °F /  7.6 °C 27.7 °F /  -2.4 °C 30.42in /  1030hPa Calm   1.0mph /  1.6km/h 49% 0.00in /  0mm 0.0 W/m2
00:20 45.5 °F /  7.5 °C 27.5 °F /  -2.5 °C 30.42in /  1030hPa Calm     49% 0.00in /  0mm 0.0 W/m2
00:25 45.3 °F /  7.4 °C 27.3 °F /  -2.6 °C 30.42in /  1030hPa Calm     49% 0.00in /  0mm 0.0 W/m2
00:32 45.3 °F /  7.4 °C 27.3 °F /  -2.6 °C 30.42in /  1030hPa Calm   1.0mph /  1.6km/h 49% 0.00in /  0mm 0.0 W/m2
00:38 45.3 °F /  7.4 °C 27.9 °F /  -2.3 °C 30.42in /  1030hPa Calm     50% 0.00in /  0mm 0.0 W/m2
00:43 45.1 °F /  7.3 °C 27.7 °F /  -2.4 °C 30.42in /  1030hPa Calm     50% 0.00in /  0mm 0.0 W/m2
00:49 45.1 °F /  7.3 °C 27.7 °F /  -2.4 °C 30.42in /  1030hPa Calm   1.0mph /  1.6km/h 50% 0.00in /  0mm 0.0 W/m2
00:56 45.1 °F /  7.3 °C 27.7 °F /  -2.4 °C 30.42in /  1030hPa Calm   1.0mph /  1.6km/h 50% 0.00in /  0mm 0.0 W/m2
01:02 45.1 °F /  7.3 °C 28.0 °F /  -2.2 °C 30.42in /  1030hPa Calm   1.0mph /  1.6km/h 51% 0.00in /  0mm 0.0 W/m2
01:08 45.0 °F /  7.2 °C 27.9 °F /  -2.3 °C 30.41in /  1029.7hPa Calm     51% 0.00in /  0mm 0.0 W/m2
01:14 45.0 °F /  7.2 °C 27.9 °F /  -2.3 °C 30.41in /  1029.7hPa Calm     51% 0.00in /  0mm 0.0 W/m2
01:20 44.8 °F /  7.1 °C 27.7 °F /  -2.4 °C 30.41in /  1029.7hPa Calm     51% 0.00in /  0mm 0.0 W/m2
01:26 44.6 °F /  7 °C 28.0 °F /  -2.2 °C 30.41in /  1029.7hPa Calm     52% 0.00in /  0mm 0.0 W/m2
01:32 44.4 °F /  6.9 °C 27.9 °F /  -2.3 °C 30.41in /  1029.7hPa Calm     52% 0.00in /  0mm 0.0 W/m2
01:38 44.1 °F /  6.7 °C 27.5 °F /  -2.5 °C 30.41in /  1029.7hPa Calm     52% 0.00in /  0mm 0.0 W/m2
01:44 43.9 °F /  6.6 °C 27.9 °F /  -2.3 °C 30.40in /  1029.3hPa Calm     53% 0.00in /  0mm 0.0 W/m2
01:50 43.5 °F /  6.4 °C 27.5 °F /  -2.5 °C 30.41in /  1029.7hPa Calm     53% 0.00in /  0mm 0.0 W/m2
01:56 43.3 °F /  6.3 °C 27.9 °F /  -2.3 °C 30.41in /  1029.7hPa Calm     54% 0.00in /  0mm 0.0 W/m2
02:02 43.2 °F /  6.2 °C 27.7 °F /  -2.4 °C 30.41in /  1029.7hPa Calm     54% 0.00in /  0mm 0.0 W/m2
02:08 43.0 °F /  6.1 °C 27.9 °F /  -2.3 °C 30.40in /  1029.3hPa Calm     55% 0.00in /  0mm 0.0 W/m2
02:14 42.6 °F /  5.9 °C 27.5 °F /  -2.5 °C 30.40in /  1029.3hPa Calm     55% 0.00in /  0mm 0.0 W/m2
02:20 42.4 °F /  5.8 °C 27.9 °F /  -2.3 °C 30.40in /  1029.3hPa Calm     56% 0.00in /  0mm 0.0 W/m2
02:26 42.4 °F /  5.8 °C 27.9 °F /  -2.3 °C 30.40in /  1029.3hPa Calm   1.0mph /  1.6km/h 56% 0.00in /  0mm 0.0 W/m2
02:32 42.3 °F /  5.7 °C 27.7 °F /  -2.4 °C 30.40in /  1029.3hPa Calm   2.0mph /  3.2km/h 56% 0.00in /  0mm 0.0 W/m2
02:38 42.3 °F /  5.7 °C 28.0 °F /  -2.2 °C 30.40in /  1029.3hPa Calm   1.0mph /  1.6km/h 57% 0.00in /  0mm 0.0 W/m2
02:44 42.3 °F /  5.7 °C 28.0 °F /  -2.2 °C 30.40in /  1029.3hPa Calm     57% 0.00in /  0mm 0.0 W/m2
02:50 42.3 °F /  5.7 °C 28.0 °F /  -2.2 °C 30.40in /  1029.3hPa Calm     57% 0.00in /  0mm 0.0 W/m2
02:56 42.3 °F /  5.7 °C 28.0 °F /  -2.2 °C 30.40in /  1029.3hPa Calm     57% 0.00in /  0mm 0.0 W/m2
03:08 42.1 °F /  5.6 °C 28.4 °F /  -2 °C 30.40in /  1029.3hPa Calm     58% 0.00in /  0mm 0.0 W/m2
03:14 41.7 °F /  5.4 °C 28.0 °F /  -2.2 °C 30.40in /  1029.3hPa Calm     58% 0.00in /  0mm 0.0 W/m2
03:20 41.5 °F /  5.3 °C 27.9 °F /  -2.3 °C 30.40in /  1029.3hPa Calm     58% 0.00in /  0mm 0.0 W/m2
03:27 41.4 °F /  5.2 °C 28.0 °F /  -2.2 °C 30.40in /  1029.3hPa Calm     59% 0.00in /  0mm 0.0 W/m2
03:33 41.4 °F /  5.2 °C 28.6 °F /  -1.9 °C 30.40in /  1029.3hPa Calm     60% 0.00in /  0mm 0.0 W/m2
03:39 41.2 °F /  5.1 °C 28.4 °F /  -2 °C 30.40in /  1029.3hPa Calm     60% 0.00in /  0mm 0.0 W/m2
03:45 41.0 °F /  5 °C 28.6 °F /  -1.9 °C 30.40in /  1029.3hPa Calm     61% 0.00in /  0mm 0.0 W/m2
03:51 40.8 °F /  4.9 °C 28.4 °F /  -2 °C 30.40in /  1029.3hPa Calm     61% 0.00in /  0mm 0.0 W/m2
03:57 40.8 °F /  4.9 °C 28.8 °F /  -1.8 °C 30.40in /  1029.3hPa Calm     62% 0.00in /  0mm 0.0 W/m2
04:03 40.6 °F /  4.8 °C 28.6 °F /  -1.9 °C 30.40in /  1029.3hPa Calm   1.0mph /  1.6km/h 62% 0.00in /  0mm 0.0 W/m2
04:09 40.6 °F /  4.8 °C 28.6 °F /  -1.9 °C 30.40in /  1029.3hPa Calm     62% 0.00in /  0mm 0.0 W/m2
04:15 40.6 °F /  4.8 °C 29.1 °F /  -1.6 °C 30.40in /  1029.3hPa Calm   1.0mph /  1.6km/h 63% 0.00in /  0mm 0.0 W/m2
04:21 40.8 °F /  4.9 °C 29.1 °F /  -1.6 °C 30.40in /  1029.3hPa Calm     63% 0.00in /  0mm 0.0 W/m2
04:27 40.8 °F /  4.9 °C 29.1 °F /  -1.6 °C 30.40in /  1029.3hPa Calm     63% 0.00in /  0mm 0.0 W/m2
04:33 40.8 °F /  4.9 °C 29.1 °F /  -1.6 °C 30.40in /  1029.3hPa Calm     63% 0.00in /  0mm 0.0 W/m2
04:40 40.8 °F /  4.9 °C 29.1 °F /  -1.6 °C 30.39in /  1029hPa Calm     63% 0.00in /  0mm 0.0 W/m2
04:46 40.8 °F /  4.9 °C 29.1 °F /  -1.6 °C 30.40in /  1029.3hPa Calm     63% 0.00in /  0mm 0.0 W/m2
04:52 40.6 °F /  4.8 °C 29.1 °F /  -1.6 °C 30.40in /  1029.3hPa Calm     63% 0.00in /  0mm 0.0 W/m2
04:58 40.6 °F /  4.8 °C 29.1 °F /  -1.6 °C 30.40in /  1029.3hPa Calm     63% 0.00in /  0mm 0.0 W/m2
05:10 40.3 °F /  4.6 °C 29.5 °F /  -1.4 °C 30.40in /  1029.3hPa Calm   3.0mph /  4.8km/h 65% 0.00in /  0mm 0.0 W/m2
05:22 40.5 °F /  4.7 °C 29.7 °F /  -1.3 °C 30.41in /  1029.7hPa Calm     65% 0.00in /  0mm 0.0 W/m2
05:28 40.6 °F /  4.8 °C 29.5 °F /  -1.4 °C 30.41in /  1029.7hPa Calm     64% 0.00in /  0mm 0.0 W/m2
05:34 40.6 °F /  4.8 °C 29.5 °F /  -1.4 °C 30.41in /  1029.7hPa Calm   1.0mph /  1.6km/h 64% 0.00in /  0mm 0.0 W/m2
05:41 40.8 °F /  4.9 °C 29.7 °F /  -1.3 °C 30.41in /  1029.7hPa Calm     64% 0.00in /  0mm 0.0 W/m2
05:47 40.6 °F /  4.8 °C 29.5 °F /  -1.4 °C 30.41in /  1029.7hPa Calm     64% 0.00in /  0mm 0.0 W/m2
05:53 40.6 °F /  4.8 °C 29.5 °F /  -1.4 °C 30.41in /  1029.7hPa Calm   2.0mph /  3.2km/h 64% 0.00in /  0mm 0.0 W/m2
05:59 40.5 °F /  4.7 °C 29.3 °F /  -1.5 °C 30.41in /  1029.7hPa Calm     64% 0.00in /  0mm 0.0 W/m2
06:05 40.5 °F /  4.7 °C 29.3 °F /  -1.5 °C 30.42in /  1030hPa Calm     64% 0.00in /  0mm 0.0 W/m2
06:11 40.3 °F /  4.6 °C 29.1 °F /  -1.6 °C 30.42in /  1030hPa Calm     64% 0.00in /  0mm 0.0 W/m2
06:17 40.1 °F /  4.5 °C 29.3 °F /  -1.5 °C 30.42in /  1030hPa Calm     65% 0.00in /  0mm 0.0 W/m2
06:23 39.9 °F /  4.4 °C 29.1 °F /  -1.6 °C 30.42in /  1030hPa Calm   1.0mph /  1.6km/h 65% 0.00in /  0mm 0.0 W/m2
06:30 39.7 °F /  4.3 °C 29.3 °F /  -1.5 °C 30.42in /  1030hPa Calm     66% 0.00in /  0mm 5.0 W/m2
06:36 39.7 °F /  4.3 °C 28.9 °F /  -1.7 °C 30.43in /  1030.4hPa Calm   1.0mph /  1.6km/h 65% 0.00in /  0mm 7.0 W/m2
06:42 39.7 °F /  4.3 °C 29.3 °F /  -1.5 °C 30.43in /  1030.4hPa Calm   1.0mph /  1.6km/h 66% 0.00in /  0mm 9.0 W/m2
06:48 39.9 °F /  4.4 °C 29.5 °F /  -1.4 °C 30.43in /  1030.4hPa Calm     66% 0.00in /  0mm 12.0 W/m2
06:53 39.9 °F /  4.4 °C 29.5 °F /  -1.4 °C 30.43in /  1030.4hPa Calm   1.0mph /  1.6km/h 66% 0.00in /  0mm 12.0 W/m2
06:58 39.9 °F /  4.4 °C 29.5 °F /  -1.4 °C 30.43in /  1030.4hPa Calm   1.0mph /  1.6km/h 66% 0.00in /  0mm 14.0 W/m2
07:04 40.1 °F /  4.5 °C 29.7 °F /  -1.3 °C 30.43in /  1030.4hPa Calm   1.0mph /  1.6km/h 66% 0.00in /  0mm 16.0 W/m2
07:10 40.3 °F /  4.6 °C 29.8 °F /  -1.2 °C 30.43in /  1030.4hPa Calm     66% 0.00in /  0mm 18.0 W/m2
07:16 40.5 °F /  4.7 °C 30.0 °F /  -1.1 °C 30.43in /  1030.4hPa Calm     66% 0.00in /  0mm 18.0 W/m2
07:23 40.8 °F /  4.9 °C 30.4 °F /  -0.9 °C 30.44in /  1030.7hPa Calm     66% 0.00in /  0mm 19.0 W/m2
07:29 41.2 °F /  5.1 °C 30.4 °F /  -0.9 °C 30.44in /  1030.7hPa Calm     65% 0.00in /  0mm 21.0 W/m2
07:35 41.5 °F /  5.3 °C 30.7 °F /  -0.7 °C 30.44in /  1030.7hPa Calm     65% 0.00in /  0mm 23.0 W/m2
07:41 42.1 °F /  5.6 °C 30.7 °F /  -0.7 °C 30.44in /  1030.7hPa Calm     64% 0.00in /  0mm 25.0 W/m2
07:47 43.0 °F /  6.1 °C 31.3 °F /  -0.4 °C 30.44in /  1030.7hPa Calm     63% 0.00in /  0mm 25.0 W/m2
07:53 44.1 °F /  6.7 °C 31.8 °F /  -0.1 °C 30.44in /  1030.7hPa Calm     62% 0.00in /  0mm 25.0 W/m2
07:59 45.3 °F /  7.4 °C 32.7 °F /  0.4 °C 30.44in /  1030.7hPa Calm   1.0mph /  1.6km/h 61% 0.00in /  0mm 26.0 W/m2
08:05 46.8 °F /  8.2 °C 32.7 °F /  0.4 °C 30.44in /  1030.7hPa Calm   2.0mph /  3.2km/h 58% 0.00in /  0mm 26.0 W/m2
08:11 48.4 °F /  9.1 °C 32.5 °F /  0.3 °C 30.44in /  1030.7hPa NE 0.9mph /  1.4km/h 2.0mph /  3.2km/h 54% 0.00in /  0mm 28.0 W/m2
08:18 49.8 °F /  9.9 °C 33.4 °F /  0.8 °C 30.44in /  1030.7hPa Calm     53% 0.00in /  0mm 35.0 W/m2
08:24 51.3 °F /  10.7 °C 33.3 °F /  0.7 °C 30.44in /  1030.7hPa NNE 2.0mph /  3.2km/h 4.0mph /  6.4km/h 50% 0.00in /  0mm 378.0 W/m2
08:30 54.1 °F /  12.3 °C 34.9 °F /  1.6 °C 30.44in /  1030.7hPa ESE 4.9mph /  7.9km/h 13.0mph /  20.9km/h 48% 0.00in /  0mm 397.0 W/m2
08:36 56.5 °F /  13.6 °C 35.4 °F /  1.9 °C 30.44in /  1030.7hPa ENE 6.9mph /  11.1km/h 11.0mph /  17.7km/h 45% 0.00in /  0mm 418.0 W/m2
08:42 57.6 °F /  14.2 °C 35.8 °F /  2.1 °C 30.44in /  1030.7hPa NE 4.0mph /  6.4km/h 10.0mph /  16.1km/h 44% 0.00in /  0mm 436.0 W/m2
08:48 58.5 °F /  14.7 °C 36.0 °F /  2.2 °C 30.44in /  1030.7hPa NNW 8.9mph /  14.3km/h 14.0mph /  22.5km/h 43% 0.00in /  0mm 457.0 W/m2
08:54 58.8 °F /  14.9 °C 35.8 °F /  2.1 °C 30.44in /  1030.7hPa NE 2.0mph /  3.2km/h 12.0mph /  19.3km/h 42% 0.00in /  0mm 476.0 W/m2
09:01 59.4 °F /  15.2 °C 36.3 °F /  2.4 °C 30.44in /  1030.7hPa East 4.0mph /  6.4km/h 9.0mph /  14.5km/h 42% 0.00in /  0mm 492.0 W/m2
09:07 59.7 °F /  15.4 °C 36.5 °F /  2.5 °C 30.44in /  1030.7hPa NNW 2.9mph /  4.7km/h 6.0mph /  9.7km/h 42% 0.00in /  0mm 510.0 W/m2
09:13 60.3 °F /  15.7 °C 36.5 °F /  2.5 °C 30.43in /  1030.4hPa East 0.9mph /  1.4km/h 7.0mph /  11.3km/h 41% 0.00in /  0mm 526.0 W/m2
09:19 60.6 °F /  15.9 °C 36.9 °F /  2.7 °C 30.44in /  1030.7hPa East 2.0mph /  3.2km/h 8.0mph /  12.9km/h 41% 0.00in /  0mm 547.0 W/m2
09:25 61.2 °F /  16.2 °C 36.7 °F /  2.6 °C 30.43in /  1030.4hPa NE 2.9mph /  4.7km/h 9.0mph /  14.5km/h 40% 0.00in /  0mm 561.0 W/m2
09:31 61.5 °F /  16.4 °C 37.0 °F /  2.8 °C 30.43in /  1030.4hPa NNW 6.0mph /  9.7km/h 6.0mph /  9.7km/h 40% 0.00in /  0mm 575.0 W/m2
09:37 61.7 °F /  16.5 °C 37.2 °F /  2.9 °C 30.43in /  1030.4hPa NE 4.0mph /  6.4km/h 10.0mph /  16.1km/h 40% 0.00in /  0mm 591.0 W/m2
09:43 62.1 °F /  16.7 °C 37.4 °F /  3 °C 30.43in /  1030.4hPa North 2.9mph /  4.7km/h 5.0mph /  8km/h 40% 0.00in /  0mm 603.0 W/m2
09:50 62.6 °F /  17 °C 37.2 °F /  2.9 °C 30.42in /  1030hPa NE 2.9mph /  4.7km/h 7.0mph /  11.3km/h 39% 0.00in /  0mm 617.0 W/m2
09:56 63.0 °F /  17.2 °C 37.0 °F /  2.8 °C 30.42in /  1030hPa NE 2.0mph /  3.2km/h 9.0mph /  14.5km/h 38% 0.00in /  0mm 629.0 W/m2
10:02 63.3 °F /  17.4 °C 36.7 °F /  2.6 °C 30.42in /  1030hPa Calm   9.0mph /  14.5km/h 37% 0.00in /  0mm 643.0 W/m2
10:08 63.5 °F /  17.5 °C 37.4 °F /  3 °C 30.42in /  1030hPa NE 6.0mph /  9.7km/h 8.0mph /  12.9km/h 38% 0.00in /  0mm 656.0 W/m2
10:16 64.0 °F /  17.8 °C 37.2 °F /  2.9 °C 30.41in /  1029.7hPa NE 2.9mph /  4.7km/h 8.0mph /  12.9km/h 37% 0.00in /  0mm 668.0 W/m2
10:22 64.2 °F /  17.9 °C 36.7 °F /  2.6 °C 30.41in /  1029.7hPa Calm   12.0mph /  19.3km/h 36% 0.00in /  0mm 680.0 W/m2
10:29 64.4 °F /  18 °C 36.9 °F /  2.7 °C 30.41in /  1029.7hPa NE 11.0mph /  17.7km/h 11.0mph /  17.7km/h 36% 0.00in /  0mm 691.0 W/m2
10:35 64.6 °F /  18.1 °C 36.3 °F /  2.4 °C 30.41in /  1029.7hPa NNE 0.9mph /  1.4km/h 13.0mph /  20.9km/h 35% 0.00in /  0mm 700.0 W/m2
10:41 64.8 °F /  18.2 °C 36.5 °F /  2.5 °C 30.40in /  1029.3hPa NNE 6.9mph /  11.1km/h 10.0mph /  16.1km/h 35% 0.00in /  0mm 710.0 W/m2
10:47 65.1 °F /  18.4 °C 36.9 °F /  2.7 °C 30.40in /  1029.3hPa NE 4.9mph /  7.9km/h 12.0mph /  19.3km/h 35% 0.00in /  0mm 715.0 W/m2
10:53 65.3 °F /  18.5 °C 36.9 °F /  2.7 °C 30.39in /  1029hPa NNE 4.0mph /  6.4km/h 8.0mph /  12.9km/h 35% 0.00in /  0mm 722.0 W/m2
10:59 65.8 °F /  18.8 °C 37.4 °F /  3 °C 30.39in /  1029hPa NNE 2.0mph /  3.2km/h 9.0mph /  14.5km/h 35% 0.00in /  0mm 729.0 W/m2
11:05 66.4 °F /  19.1 °C 37.2 °F /  2.9 °C 30.39in /  1029hPa NW 2.0mph /  3.2km/h 8.0mph /  12.9km/h 34% 0.00in /  0mm 735.0 W/m2
11:12 66.7 °F /  19.3 °C 36.7 °F /  2.6 °C 30.38in /  1028.7hPa NNE 8.1mph /  13km/h 11.0mph /  17.7km/h 33% 0.00in /  0mm 744.0 W/m2
11:24 67.5 °F /  19.7 °C 36.5 °F /  2.5 °C 30.38in /  1028.7hPa NE 6.9mph /  11.1km/h 10.0mph /  16.1km/h 32% 0.00in /  0mm 749.0 W/m2
11:30 67.5 °F /  19.7 °C 35.8 °F /  2.1 °C 30.37in /  1028.3hPa NNE 2.0mph /  3.2km/h 9.0mph /  14.5km/h 31% 0.00in /  0mm 756.0 W/m2
11:36 68.0 °F /  20 °C 36.3 °F /  2.4 °C 30.37in /  1028.3hPa NNE 8.9mph /  14.3km/h 9.0mph /  14.5km/h 31% 0.00in /  0mm 754.0 W/m2
11:42 68.2 °F /  20.1 °C 36.3 °F /  2.4 °C 30.36in /  1028hPa NNW 2.9mph /  4.7km/h 9.0mph /  14.5km/h 31% 0.00in /  0mm 754.0 W/m2
11:48 68.4 °F /  20.2 °C 35.8 °F /  2.1 °C 30.36in /  1028hPa East 4.0mph /  6.4km/h 9.0mph /  14.5km/h 30% 0.00in /  0mm 756.0 W/m2
11:55 68.5 °F /  20.3 °C 36.0 °F /  2.2 °C 30.35in /  1027.7hPa ENE 0.9mph /  1.4km/h 6.0mph /  9.7km/h 30% 0.00in /  0mm 756.0 W/m2
12:01 69.1 °F /  20.6 °C 36.3 °F /  2.4 °C 30.35in /  1027.7hPa North 2.0mph /  3.2km/h 12.0mph /  19.3km/h 30% 0.00in /  0mm 756.0 W/m2
12:07 69.4 °F /  20.8 °C 36.7 °F /  2.6 °C 30.34in /  1027.3hPa Calm   1.0mph /  1.6km/h 30% 0.00in /  0mm 756.0 W/m2
12:13 70.0 °F /  21.1 °C 36.3 °F /  2.4 °C 30.34in /  1027.3hPa North 4.0mph /  6.4km/h 8.0mph /  12.9km/h 29% 0.00in /  0mm 752.0 W/m2
12:19 70.2 °F /  21.2 °C 36.5 °F /  2.5 °C 30.34in /  1027.3hPa NE 2.9mph /  4.7km/h 7.0mph /  11.3km/h 29% 0.00in /  0mm 751.0 W/m2
12:25 70.3 °F /  21.3 °C 35.6 °F /  2 °C 30.33in /  1027hPa NNE 2.0mph /  3.2km/h 6.0mph /  9.7km/h 28% 0.00in /  0mm 747.0 W/m2
12:31 70.5 °F /  21.4 °C 35.8 °F /  2.1 °C 30.33in /  1027hPa NNE 6.0mph /  9.7km/h 10.0mph /  16.1km/h 28% 0.00in /  0mm 745.0 W/m2
12:44 71.1 °F /  21.7 °C 35.4 °F /  1.9 °C 30.32in /  1026.6hPa East 2.9mph /  4.7km/h 8.0mph /  12.9km/h 27% 0.00in /  0mm 733.0 W/m2
12:50 71.2 °F /  21.8 °C 34.5 °F /  1.4 °C 30.31in /  1026.3hPa NNW 2.9mph /  4.7km/h 12.0mph /  19.3km/h 26% 0.00in /  0mm 728.0 W/m2
12:56 71.1 °F /  21.7 °C 36.3 °F /  2.4 °C 30.31in /  1026.3hPa NNE 4.9mph /  7.9km/h 5.0mph /  8km/h 28% 0.00in /  0mm 719.0 W/m2
13:02 71.2 °F /  21.8 °C 34.5 °F /  1.4 °C 30.31in /  1026.3hPa NE 4.0mph /  6.4km/h 12.0mph /  19.3km/h 26% 0.00in /  0mm 712.0 W/m2
13:08 71.2 °F /  21.8 °C 33.6 °F /  0.9 °C 30.31in /  1026.3hPa NE 4.9mph /  7.9km/h 10.0mph /  16.1km/h 25% 0.00in /  0mm 707.0 W/m2
13:14 71.1 °F /  21.7 °C 34.5 °F /  1.4 °C 30.30in /  1026hPa North 0.9mph /  1.4km/h 7.0mph /  11.3km/h 26% 0.00in /  0mm 698.0 W/m2
13:20 71.4 °F /  21.9 °C 34.7 °F /  1.5 °C 30.30in /  1026hPa ENE 6.9mph /  11.1km/h 7.0mph /  11.3km/h 26% 0.00in /  0mm 686.0 W/m2
13:27 71.8 °F /  22.1 °C 34.0 °F /  1.1 °C 30.30in /  1026hPa East 2.0mph /  3.2km/h 11.0mph /  17.7km/h 25% 0.00in /  0mm 675.0 W/m2
13:33 72.0 °F /  22.2 °C 35.2 °F /  1.8 °C 30.29in /  1025.6hPa NE 2.9mph /  4.7km/h 11.0mph /  17.7km/h 26% 0.00in /  0mm 664.0 W/m2
13:39 72.1 °F /  22.3 °C 35.4 °F /  1.9 °C 30.29in /  1025.6hPa North 2.9mph /  4.7km/h 10.0mph /  16.1km/h 26% 0.00in /  0mm 657.0 W/m2
13:45 72.3 °F /  22.4 °C 34.5 °F /  1.4 °C 30.29in /  1025.6hPa NNE 6.0mph /  9.7km/h 10.0mph /  16.1km/h 25% 0.00in /  0mm 645.0 W/m2
13:51 72.1 °F /  22.3 °C 35.4 °F /  1.9 °C 30.29in /  1025.6hPa ENE 2.9mph /  4.7km/h 7.0mph /  11.3km/h 26% 0.00in /  0mm 629.0 W/m2
13:57 72.0 °F /  22.2 °C 35.2 °F /  1.8 °C 30.28in /  1025.3hPa NNE 2.9mph /  4.7km/h 8.0mph /  12.9km/h 26% 0.00in /  0mm 617.0 W/m2
14:03 72.0 °F /  22.2 °C 34.2 °F /  1.2 °C 30.28in /  1025.3hPa Calm   8.0mph /  12.9km/h 25% 0.00in /  0mm 606.0 W/m2
14:09 72.1 °F /  22.3 °C 33.4 °F /  0.8 °C 30.28in /  1025.3hPa NE 4.0mph /  6.4km/h 8.0mph /  12.9km/h 24% 0.00in /  0mm 592.0 W/m2
14:16 72.1 °F /  22.3 °C 33.4 °F /  0.8 °C 30.28in /  1025.3hPa North 0.9mph /  1.4km/h 6.0mph /  9.7km/h 24% 0.00in /  0mm 577.0 W/m2
14:22 72.1 °F /  22.3 °C 34.3 °F /  1.3 °C 30.27in /  1024.9hPa North 2.0mph /  3.2km/h 7.0mph /  11.3km/h 25% 0.00in /  0mm 561.0 W/m2
14:28 72.1 °F /  22.3 °C 34.3 °F /  1.3 °C 30.27in /  1024.9hPa North 6.0mph /  9.7km/h 10.0mph /  16.1km/h 25% 0.00in /  0mm 547.0 W/m2
14:34 72.3 °F /  22.4 °C 34.5 °F /  1.4 °C 30.27in /  1024.9hPa NE 4.0mph /  6.4km/h 6.0mph /  9.7km/h 25% 0.00in /  0mm 531.0 W/m2
14:40 72.7 °F /  22.6 °C 34.9 °F /  1.6 °C 30.27in /  1024.9hPa ENE 2.9mph /  4.7km/h 12.0mph /  19.3km/h 25% 0.00in /  0mm 513.0 W/m2
14:46 72.7 °F /  22.6 °C 33.8 °F /  1 °C 30.27in /  1024.9hPa NNE 4.9mph /  7.9km/h 10.0mph /  16.1km/h 24% 0.00in /  0mm 496.0 W/m2
14:52 72.9 °F /  22.7 °C 34.0 °F /  1.1 °C 30.27in /  1024.9hPa NW 4.0mph /  6.4km/h 8.0mph /  12.9km/h 24% 0.00in /  0mm 480.0 W/m2
14:58 73.0 °F /  22.8 °C 34.2 °F /  1.2 °C 30.27in /  1024.9hPa East 2.0mph /  3.2km/h 5.0mph /  8km/h 24% 0.00in /  0mm 461.0 W/m2
15:04 73.0 °F /  22.8 °C 33.1 °F /  0.6 °C 30.27in /  1024.9hPa NNE 2.0mph /  3.2km/h 7.0mph /  11.3km/h 23% 0.00in /  0mm 443.0 W/m2
15:11 72.9 °F /  22.7 °C 32.9 °F /  0.5 °C 30.27in /  1024.9hPa North 0.9mph /  1.4km/h 7.0mph /  11.3km/h 23% 0.00in /  0mm 425.0 W/m2
15:17 72.9 °F /  22.7 °C 32.9 °F /  0.5 °C 30.27in /  1024.9hPa East 4.9mph /  7.9km/h 6.0mph /  9.7km/h 23% 0.00in /  0mm 403.0 W/m2
15:23 72.9 °F /  22.7 °C 32.9 °F /  0.5 °C 30.27in /  1024.9hPa NNE 2.0mph /  3.2km/h 4.0mph /  6.4km/h 23% 0.00in /  0mm 385.0 W/m2
15:29 72.5 °F /  22.5 °C 33.6 °F /  0.9 °C 30.27in /  1024.9hPa North 4.0mph /  6.4km/h 7.0mph /  11.3km/h 24% 0.00in /  0mm 364.0 W/m2
15:35 72.1 °F /  22.3 °C 32.4 °F /  0.2 °C 30.27in /  1024.9hPa NE 6.0mph /  9.7km/h 8.0mph /  12.9km/h 23% 0.00in /  0mm 345.0 W/m2
15:41 72.0 °F /  22.2 °C 33.3 °F /  0.7 °C 30.28in /  1025.3hPa Calm   8.0mph /  12.9km/h 24% 0.00in /  0mm 325.0 W/m2
15:47 71.6 °F /  22 °C 32.9 °F /  0.5 °C 30.27in /  1024.9hPa ENE 6.9mph /  11.1km/h 8.0mph /  12.9km/h 24% 0.00in /  0mm 40.0 W/m2
15:54 71.4 °F /  21.9 °C 33.8 °F /  1 °C 30.28in /  1025.3hPa ESE 2.9mph /  4.7km/h 7.0mph /  11.3km/h 25% 0.00in /  0mm 35.0 W/m2
16:00 71.1 °F /  21.7 °C 33.4 °F /  0.8 °C 30.28in /  1025.3hPa SE 4.9mph /  7.9km/h 9.0mph /  14.5km/h 25% 0.00in /  0mm 33.0 W/m2
16:06 70.9 °F /  21.6 °C 33.3 °F /  0.7 °C 30.28in /  1025.3hPa ENE 6.9mph /  11.1km/h 7.0mph /  11.3km/h 25% 0.00in /  0mm 32.0 W/m2
16:12 70.5 °F /  21.4 °C 33.1 °F /  0.6 °C 30.28in /  1025.3hPa SE 0.9mph /  1.4km/h 10.0mph /  16.1km/h 25% 0.00in /  0mm 30.0 W/m2
16:18 70.2 °F /  21.2 °C 32.7 °F /  0.4 °C 30.28in /  1025.3hPa NNE 2.0mph /  3.2km/h 8.0mph /  12.9km/h 25% 0.00in /  0mm 28.0 W/m2
16:24 70.0 °F /  21.1 °C 33.4 °F /  0.8 °C 30.28in /  1025.3hPa ENE 4.9mph /  7.9km/h 9.0mph /  14.5km/h 26% 0.00in /  0mm 39.0 W/m2
16:30 69.6 °F /  20.9 °C 33.3 °F /  0.7 °C 30.28in /  1025.3hPa NE 0.9mph /  1.4km/h 5.0mph /  8km/h 26% 0.00in /  0mm 35.0 W/m2
16:36 69.4 °F /  20.8 °C 33.1 °F /  0.6 °C 30.28in /  1025.3hPa Calm   4.0mph /  6.4km/h 26% 0.00in /  0mm 28.0 W/m2
16:43 69.1 °F /  20.6 °C 32.7 °F /  0.4 °C 30.28in /  1025.3hPa East 0.9mph /  1.4km/h 8.0mph /  12.9km/h 26% 0.00in /  0mm 18.0 W/m2
16:49 68.9 °F /  20.5 °C 32.5 °F /  0.3 °C 30.28in /  1025.3hPa Calm   4.0mph /  6.4km/h 26% 0.00in /  0mm 21.0 W/m2
16:55 68.5 °F /  20.3 °C 33.3 °F /  0.7 °C 30.28in /  1025.3hPa Calm   3.0mph /  4.8km/h 27% 0.00in /  0mm 18.0 W/m2
17:01 68.4 °F /  20.2 °C 33.1 °F /  0.6 °C 30.28in /  1025.3hPa NNE 4.9mph /  7.9km/h 8.0mph /  12.9km/h 27% 0.00in /  0mm 23.0 W/m2
17:07 68.0 °F /  20 °C 32.7 °F /  0.4 °C 30.28in /  1025.3hPa North 2.9mph /  4.7km/h 6.0mph /  9.7km/h 27% 0.00in /  0mm 12.0 W/m2
17:13 67.6 °F /  19.8 °C 33.4 °F /  0.8 °C 30.29in /  1025.6hPa North 0.9mph /  1.4km/h 7.0mph /  11.3km/h 28% 0.00in /  0mm 11.0 W/m2
17:19 67.5 °F /  19.7 °C 33.3 °F /  0.7 °C 30.29in /  1025.6hPa ENE 0.9mph /  1.4km/h 4.0mph /  6.4km/h 28% 0.00in /  0mm 7.0 W/m2
17:25 66.9 °F /  19.4 °C 32.7 °F /  0.4 °C 30.30in /  1026hPa North 2.9mph /  4.7km/h 5.0mph /  8km/h 28% 0.00in /  0mm 5.0 W/m2
17:32 66.6 °F /  19.2 °C 33.3 °F /  0.7 °C 30.30in /  1026hPa ENE 4.9mph /  7.9km/h 8.0mph /  12.9km/h 29% 0.00in /  0mm 0.0 W/m2
17:38 66.2 °F /  19 °C 33.1 °F /  0.6 °C 30.30in /  1026hPa ENE 2.0mph /  3.2km/h 5.0mph /  8km/h 29% 0.00in /  0mm 0.0 W/m2
17:44 65.8 °F /  18.8 °C 33.6 °F /  0.9 °C 30.30in /  1026hPa East 0.9mph /  1.4km/h 2.0mph /  3.2km/h 30% 0.00in /  0mm 0.0 W/m2
17:50 65.5 °F /  18.6 °C 33.3 °F /  0.7 °C 30.30in /  1026hPa Calm   2.0mph /  3.2km/h 30% 0.00in /  0mm 0.0 W/m2
17:56 64.9 °F /  18.3 °C 32.7 °F /  0.4 °C 30.31in /  1026.3hPa Calm   2.0mph /  3.2km/h 30% 0.00in /  0mm 0.0 W/m2
18:02 64.6 °F /  18.1 °C 33.3 °F /  0.7 °C 30.31in /  1026.3hPa Calm   1.0mph /  1.6km/h 31% 0.00in /  0mm 0.0 W/m2
18:08 64.0 °F /  17.8 °C 32.7 °F /  0.4 °C 30.31in /  1026.3hPa Calm     31% 0.00in /  0mm 0.0 W/m2
18:14 63.3 °F /  17.4 °C 32.9 °F /  0.5 °C 30.31in /  1026.3hPa Calm     32% 0.00in /  0mm 0.0 W/m2
18:21 62.8 °F /  17.1 °C 32.5 °F /  0.3 °C 30.31in /  1026.3hPa Calm   2.0mph /  3.2km/h 32% 0.00in /  0mm 0.0 W/m2
18:27 61.9 °F /  16.6 °C 32.5 °F /  0.3 °C 30.31in /  1026.3hPa Calm     33% 0.00in /  0mm 0.0 W/m2
18:33 61.2 °F /  16.2 °C 32.5 °F /  0.3 °C 30.31in /  1026.3hPa East 2.0mph /  3.2km/h 2.0mph /  3.2km/h 34% 0.00in /  0mm 0.0 W/m2
18:39 60.6 °F /  15.9 °C 32.9 °F /  0.5 °C 30.32in /  1026.6hPa Calm   1.0mph /  1.6km/h 35% 0.00in /  0mm 0.0 W/m2
18:45 60.1 °F /  15.6 °C 33.1 °F /  0.6 °C 30.32in /  1026.6hPa Calm   1.0mph /  1.6km/h 36% 0.00in /  0mm 0.0 W/m2
18:51 59.4 °F /  15.2 °C 32.4 °F /  0.2 °C 30.32in /  1026.6hPa Calm   1.0mph /  1.6km/h 36% 0.00in /  0mm 0.0 W/m2
18:57 58.8 °F /  14.9 °C 32.5 °F /  0.3 °C 30.32in /  1026.6hPa Calm   1.0mph /  1.6km/h 37% 0.00in /  0mm 0.0 W/m2
19:04 58.5 °F /  14.7 °C 32.4 °F /  0.2 °C 30.33in /  1027hPa Calm   1.0mph /  1.6km/h 37% 0.00in /  0mm 0.0 W/m2
19:10 58.3 °F /  14.6 °C 32.7 °F /  0.4 °C 30.33in /  1027hPa Calm   3.0mph /  4.8km/h 38% 0.00in /  0mm 0.0 W/m2
19:16 57.7 °F /  14.3 °C 32.4 °F /  0.2 °C 30.33in /  1027hPa ENE 0.9mph /  1.4km/h 2.0mph /  3.2km/h 38% 0.00in /  0mm 0.0 W/m2
19:22 57.4 °F /  14.1 °C 32.5 °F /  0.3 °C 30.33in /  1027hPa NE 0.9mph /  1.4km/h 3.0mph /  4.8km/h 39% 0.00in /  0mm 0.0 W/m2
19:28 57.0 °F /  13.9 °C 32.4 °F /  0.2 °C 30.33in /  1027hPa Calm   2.0mph /  3.2km/h 39% 0.00in /  0mm 0.0 W/m2
19:34 56.8 °F /  13.8 °C 32.7 °F /  0.4 °C 30.33in /  1027hPa Calm     40% 0.00in /  0mm 0.0 W/m2
19:40 56.7 °F /  13.7 °C 32.5 °F /  0.3 °C 30.33in /  1027hPa Calm   1.0mph /  1.6km/h 40% 0.00in /  0mm 0.0 W/m2
19:46 56.3 °F /  13.5 °C 32.4 °F /  0.2 °C 30.33in /  1027hPa Calm   1.0mph /  1.6km/h 40% 0.00in /  0mm 0.0 W/m2
19:53 55.9 °F /  13.3 °C 32.5 °F /  0.3 °C 30.33in /  1027hPa Calm   1.0mph /  1.6km/h 41% 0.00in /  0mm 0.0 W/m2
19:59 55.8 °F /  13.2 °C 32.4 °F /  0.2 °C 30.34in /  1027.3hPa Calm   2.0mph /  3.2km/h 41% 0.00in /  0mm 0.0 W/m2
20:05 55.6 °F /  13.1 °C 32.2 °F /  0.1 °C 30.34in /  1027.3hPa Calm   1.0mph /  1.6km/h 41% 0.00in /  0mm 0.0 W/m2
20:11 55.4 °F /  13 °C 32.7 °F /  0.4 °C 30.34in /  1027.3hPa NE 2.0mph /  3.2km/h 2.0mph /  3.2km/h 42% 0.00in /  0mm 0.0 W/m2
20:17 55.0 °F /  12.8 °C 32.4 °F /  0.2 °C 30.34in /  1027.3hPa East 0.9mph /  1.4km/h 2.0mph /  3.2km/h 42% 0.00in /  0mm 0.0 W/m2
20:23 54.9 °F /  12.7 °C 32.7 °F /  0.4 °C 30.34in /  1027.3hPa Calm   1.0mph /  1.6km/h 43% 0.00in /  0mm 0.0 W/m2
20:29 54.9 °F /  12.7 °C 32.7 °F /  0.4 °C 30.34in /  1027.3hPa Calm   4.0mph /  6.4km/h 43% 0.00in /  0mm 0.0 W/m2
20:35 54.7 °F /  12.6 °C 32.5 °F /  0.3 °C 30.34in /  1027.3hPa Calm   2.0mph /  3.2km/h 43% 0.00in /  0mm 0.0 W/m2
20:42 54.3 °F /  12.4 °C 32.4 °F /  0.2 °C 30.34in /  1027.3hPa Calm   2.0mph /  3.2km/h 43% 0.00in /  0mm 0.0 W/m2
20:48 54.3 °F /  12.4 °C 32.9 °F /  0.5 °C 30.34in /  1027.3hPa Calm   2.0mph /  3.2km/h 44% 0.00in /  0mm 0.0 W/m2
20:54 54.0 °F /  12.2 °C 32.5 °F /  0.3 °C 30.34in /  1027.3hPa Calm   1.0mph /  1.6km/h 44% 0.00in /  0mm 0.0 W/m2
21:00 54.0 °F /  12.2 °C 32.5 °F /  0.3 °C 30.34in /  1027.3hPa Calm   4.0mph /  6.4km/h 44% 0.00in /  0mm 0.0 W/m2
21:06 53.8 °F /  12.1 °C 32.4 °F /  0.2 °C 30.34in /  1027.3hPa Calm   1.0mph /  1.6km/h 44% 0.00in /  0mm 0.0 W/m2
21:12 53.6 °F /  12 °C 32.7 °F /  0.4 °C 30.35in /  1027.7hPa Calm   2.0mph /  3.2km/h 45% 0.00in /  0mm 0.0 W/m2
21:18 53.4 °F /  11.9 °C 32.5 °F /  0.3 °C 30.35in /  1027.7hPa Calm   1.0mph /  1.6km/h 45% 0.00in /  0mm 0.0 W/m2
21:24 53.2 °F /  11.8 °C 32.4 °F /  0.2 °C 30.35in /  1027.7hPa Calm   1.0mph /  1.6km/h 45% 0.00in /  0mm 0.0 W/m2
21:31 53.1 °F /  11.7 °C 32.9 °F /  0.5 °C 30.36in /  1028hPa Calm     46% 0.00in /  0mm 0.0 W/m2
21:37 53.1 °F /  11.7 °C 32.9 °F /  0.5 °C 30.35in /  1027.7hPa Calm   2.0mph /  3.2km/h 46% 0.00in /  0mm 0.0 W/m2
21:43 52.9 °F /  11.6 °C 32.7 °F /  0.4 °C 30.35in /  1027.7hPa Calm   1.0mph /  1.6km/h 46% 0.00in /  0mm 0.0 W/m2
21:49 52.7 °F /  11.5 °C 32.5 °F /  0.3 °C 30.35in /  1027.7hPa Calm   3.0mph /  4.8km/h 46% 0.00in /  0mm 0.0 W/m2
21:55 52.5 °F /  11.4 °C 32.9 °F /  0.5 °C 30.35in /  1027.7hPa Calm   1.0mph /  1.6km/h 47% 0.00in /  0mm 0.0 W/m2
22:01 52.3 °F /  11.3 °C 32.7 °F /  0.4 °C 30.35in /  1027.7hPa Calm   1.0mph /  1.6km/h 47% 0.00in /  0mm 0.0 W/m2
22:08 52.2 °F /  11.2 °C 32.5 °F /  0.3 °C 30.35in /  1027.7hPa Calm     47% 0.00in /  0mm 0.0 W/m2
22:14 52.0 °F /  11.1 °C 32.9 °F /  0.5 °C 30.35in /  1027.7hPa Calm   1.0mph /  1.6km/h 48% 0.00in /  0mm 0.0 W/m2
22:20 51.8 °F /  11 °C 32.7 °F /  0.4 °C 30.35in /  1027.7hPa Calm   1.0mph /  1.6km/h 48% 0.00in /  0mm 0.0 W/m2
22:26 51.6 °F /  10.9 °C 32.5 °F /  0.3 °C 30.35in /  1027.7hPa Calm   2.0mph /  3.2km/h 48% 0.00in /  0mm 0.0 W/m2
22:32 51.4 °F /  10.8 °C 32.9 °F /  0.5 °C 30.35in /  1027.7hPa Calm   1.0mph /  1.6km/h 49% 0.00in /  0mm 0.0 W/m2
22:38 51.3 °F /  10.7 °C 32.7 °F /  0.4 °C 30.35in /  1027.7hPa Calm     49% 0.00in /  0mm 0.0 W/m2
22:44 51.1 °F /  10.6 °C 33.1 °F /  0.6 °C 30.35in /  1027.7hPa Calm   1.0mph /  1.6km/h 50% 0.00in /  0mm 0.0 W/m2
22:51 51.1 °F /  10.6 °C 33.1 °F /  0.6 °C 30.34in /  1027.3hPa Calm   1.0mph /  1.6km/h 50% 0.00in /  0mm 0.0 W/m2
22:57 51.1 °F /  10.6 °C 33.1 °F /  0.6 °C 30.34in /  1027.3hPa Calm     50% 0.00in /  0mm 0.0 W/m2
23:03 50.9 °F /  10.5 °C 32.9 °F /  0.5 °C 30.35in /  1027.7hPa Calm   1.0mph /  1.6km/h 50% 0.00in /  0mm 0.0 W/m2
23:09 50.9 °F /  10.5 °C 32.9 °F /  0.5 °C 30.35in /  1027.7hPa Calm   1.0mph /  1.6km/h 50% 0.00in /  0mm 0.0 W/m2
23:15 50.7 °F /  10.4 °C 32.7 °F /  0.4 °C 30.35in /  1027.7hPa Calm   1.0mph /  1.6km/h 50% 0.00in /  0mm 0.0 W/m2
23:21 50.5 °F /  10.3 °C 33.1 °F /  0.6 °C 30.34in /  1027.3hPa Calm     51% 0.00in /  0mm 0.0 W/m2
23:27 50.5 °F /  10.3 °C 33.1 °F /  0.6 °C 30.34in /  1027.3hPa ESE 2.9mph /  4.7km/h 4.0mph /  6.4km/h 51% 0.00in /  0mm 0.0 W/m2
23:33 50.4 °F /  10.2 °C 32.9 °F /  0.5 °C 30.34in /  1027.3hPa Calm   2.0mph /  3.2km/h 51% 0.00in /  0mm 0.0 W/m2
23:39 50.4 °F /  10.2 °C 32.9 °F /  0.5 °C 30.34in /  1027.3hPa Calm   3.0mph /  4.8km/h 51% 0.00in /  0mm 0.0 W/m2
23:45 50.5 °F /  10.3 °C 33.1 °F /  0.6 °C 30.34in /  1027.3hPa Calm   3.0mph /  4.8km/h 51% 0.00in /  0mm 0.0 W/m2
23:51 50.5 °F /  10.3 °C 33.1 °F /  0.6 °C 30.34in /  1027.3hPa Calm   2.0mph /  3.2km/h 51% 0.00in /  0mm 0.0 W/m2
23:57 50.5 °F /  10.3 °C 33.1 °F /  0.6 °C 30.34in /  1027.3hPa Calm   5.0mph /  8km/h 51% 0.00in /  0mm 0.0 W/m2
Olympia, Windhoek, Namibia
Compliments of Weather Underground - 3 mb